Mandoudi — SV3198 — position and weather

sailwx.info

Track history (hours):
 
Tides and Currents Weather Stations Pressure Air Temp Water Temp Dewpoint Dewpoint Depression Visibility Wind Speed Wind Dir Waves Ship Positions

Mandoudi

Last reported at 2016-Feb-12 00:33 UTC. Time now 2016-Feb-12 01:22 UTC.
Position N 38°02' E 023°31'.

Length 60 m; draft 4.6 m.

Type: Ship (hazmat cat A). MMSI: 237470200.

Date/timePositionNaut miles runAvg speedWind from/ knotsBaromVisibWave heightAir tempDewpointWater temp
2016-Feb-12 00:33N 38°02' E 023°31'0 0.0
2016-Feb-11 23:33N 38°02' E 023°31'0 0.0
2016-Feb-11 22:34N 38°02' E 023°31'0 0.0
2016-Feb-11 21:34N 38°02' E 023°31'0 0.2
2016-Feb-11 20:34N 38°02' E 023°31'0 0.5
2016-Feb-11 19:33N 38°02' E 023°31'0 0.0
2016-Feb-11 18:33N 38°02' E 023°31'0 0.0
2016-Feb-11 17:33N 38°02' E 023°31'0 0.0
2016-Feb-11 16:26N 38°02' E 023°31'0 0.1
2016-Feb-11 15:33N 38°02' E 023°31'5 5.2
2016-Feb-11 14:33N 37°57' E 023°34'4 3.6
2016-Feb-11 13:33N 37°57' E 023°38'0 0.0
2016-Feb-11 12:34N 37°57' E 023°38'0 0.0
2016-Feb-11 11:33N 37°57' E 023°38'0 0.0
2016-Feb-11 10:34N 37°57' E 023°38'1 0.8
2016-Feb-11 09:33N 37°56' E 023°37'1 1.3
2016-Feb-11 08:34N 37°58' E 023°37'0 0.0
2016-Feb-11 07:33N 37°58' E 023°37'0 0.0
2016-Feb-11 06:33N 37°58' E 023°37'0 0.0
2016-Feb-11 05:33N 37°58' E 023°37'4 3.8
2016-Feb-11 04:33N 37°60' E 023°33'2 2.0
2016-Feb-11 03:33N 38°02' E 023°31'0 0.0
2016-Feb-11 02:33N 38°02' E 023°31'0 0.0
2016-Feb-11 01:33N 38°02' E 023°31'0 0.0
2016-Feb-11 00:33N 38°02' E 023°31'0 0.1
2016-Feb-10 23:33N 38°02' E 023°31'0 0.0
2016-Feb-10 22:33N 38°02' E 023°31'0 0.0
2016-Feb-10 21:33N 38°02' E 023°31'0 0.0
2016-Feb-10 20:33N 38°02' E 023°31'1 0.8
2016-Feb-10 19:33N 38°02' E 023°31'0 0.0
2016-Feb-10 18:34N 38°02' E 023°31'0 0.0
2016-Feb-10 17:34N 38°02' E 023°31'0 0.0
2016-Feb-10 16:33N 38°02' E 023°31'0 0.0
2016-Feb-10 15:33N 38°02' E 023°31'5 5.5
2016-Feb-10 14:34N 37°57' E 023°34'2 2.2
2016-Feb-10 13:33N 37°58' E 023°37'3 2.6
2016-Feb-10 12:34N 37°55' E 023°38'9 8.9
2016-Feb-10 11:33N 37°48' E 023°44'19 4.3
2016-Feb-10 07:15N 37°55' E 024°05'6 8.9
2016-Feb-10 06:32N 38°01' E 024°06'23 7.8
2016-Feb-10 03:32N 38°21' E 023°49'  
2016-Feb-07 14:32N 38°21' E 023°47'23 7.0
2016-Feb-07 11:18N 38°04' E 024°06'7 8.0
2016-Feb-07 10:24N 37°57' E 024°05'20 4.2
2016-Feb-07 05:34N 37°48' E 023°42'8 8.0
2016-Feb-07 04:33N 37°55' E 023°37'3 2.8
2016-Feb-07 03:34N 37°58' E 023°37'0 0.0
2016-Feb-07 02:33N 37°58' E 023°37'0 0.0
2016-Feb-07 01:34N 37°58' E 023°37'0 0.0
2016-Feb-07 00:34N 37°58' E 023°37'0 0.0
2016-Feb-06 23:33N 37°58' E 023°37'0 0.0
2016-Feb-06 22:34N 37°58' E 023°37'0 0.0
2016-Feb-06 21:34N 37°58' E 023°37'0 0.0
2016-Feb-06 20:34N 37°58' E 023°37'0 0.0
2016-Feb-06 19:33N 37°58' E 023°37'0 0.0
2016-Feb-06 18:33N 37°58' E 023°37'0 0.0
2016-Feb-06 17:33N 37°58' E 023°37'0 0.0
2016-Feb-06 16:33N 37°58' E 023°37'0 0.0
2016-Feb-06 15:34N 37°58' E 023°37'0 0.0
2016-Feb-06 14:34N 37°58' E 023°37'0 0.0
2016-Feb-06 13:34N 37°58' E 023°37'0 0.0
2016-Feb-06 12:33N 37°58' E 023°37'0 0.0
2016-Feb-06 11:34N 37°58' E 023°37'0 0.0
2016-Feb-06 10:33N 37°58' E 023°37'0 0.0
2016-Feb-06 09:34N 37°58' E 023°37'0 0.0
2016-Feb-06 08:33N 37°58' E 023°37'0 0.0
2016-Feb-06 07:33N 37°58' E 023°37'0 0.0
2016-Feb-06 06:33N 37°58' E 023°37'0 0.0
2016-Feb-06 05:33N 37°58' E 023°37'0 0.0
2016-Feb-06 04:34N 37°58' E 023°37'0 0.0
2016-Feb-06 03:33N 37°58' E 023°37'0 0.0
2016-Feb-06 02:33N 37°58' E 023°37'0 0.0
2016-Feb-06 01:34N 37°58' E 023°37'0 0.0
2016-Feb-06 00:34N 37°58' E 023°37'0 0.0
2016-Feb-05 23:34N 37°58' E 023°37'0 0.0
2016-Feb-05 22:33N 37°58' E 023°37'0 0.0
2016-Feb-05 21:33N 37°58' E 023°37'0 0.0
2016-Feb-05 20:33N 37°58' E 023°37'0 0.0
2016-Feb-05 19:33N 37°58' E 023°37'0 0.0
2016-Feb-05 18:33N 37°58' E 023°37'2 2.2
2016-Feb-05 17:34N 37°57' E 023°34'6 5.5
2016-Feb-05 16:34N 38°02' E 023°31'0 0.0
2016-Feb-05 15:33N 38°02' E 023°31'0 0.0
2016-Feb-05 14:34N 38°02' E 023°31'0 0.0
2016-Feb-05 13:33N 38°02' E 023°31'0 0.0
2016-Feb-05 12:33N 38°02' E 023°31'0 0.0
2016-Feb-05 11:33N 38°02' E 023°31'0 0.0
2016-Feb-05 10:34N 38°02' E 023°31'0 0.0
2016-Feb-05 09:34N 38°02' E 023°31'1 0.8
2016-Feb-05 08:34N 38°02' E 023°32'0 0.4
2016-Feb-05 07:33N 38°01' E 023°32'0 0.0
2016-Feb-05 06:33N 38°01' E 023°32'4 3.8
2016-Feb-05 05:33N 37°58' E 023°33'3 3.0
2016-Feb-05 04:34N 37°58' E 023°37'0 0.0
2016-Feb-05 03:33N 37°58' E 023°37'0 0.0
2016-Feb-05 02:33N 37°58' E 023°37'0 0.0
2016-Feb-05 01:34N 37°58' E 023°37'0 0.0
2016-Feb-05 00:33N 37°58' E 023°37'0 0.0
2016-Feb-04 23:33N 37°58' E 023°37'0 0.0
2016-Feb-04 22:34N 37°58' E 023°37'0 0.0
2016-Feb-04 21:33N 37°58' E 023°37'0 0.0
2016-Feb-04 20:33N 37°58' E 023°37'0 0.0
2016-Feb-04 19:33N 37°58' E 023°37'0 0.0
2016-Feb-04 18:34N 37°58' E 023°37'0 0.0
2016-Feb-04 17:32N 37°58' E 023°37'0 0.0
2016-Feb-04 16:33N 37°58' E 023°37'0 0.0
2016-Feb-04 15:33N 37°58' E 023°37'0 0.0
2016-Feb-04 14:34N 37°58' E 023°37'0 0.0
2016-Feb-04 13:34N 37°58' E 023°37'1 1.4
2016-Feb-04 12:34N 37°57' E 023°38'0 0.1
2016-Feb-04 11:34N 37°57' E 023°38'0 0.0
2016-Feb-04 10:33N 37°57' E 023°38'0 0.1
2016-Feb-04 09:33N 37°57' E 023°38'1 1.5
2016-Feb-04 08:33N 37°58' E 023°37'0 0.0
2016-Feb-04 07:33N 37°58' E 023°37'0 0.0
2016-Feb-04 06:33N 37°58' E 023°37'0 0.0
2016-Feb-04 05:33N 37°58' E 023°37'0 0.0
2016-Feb-04 04:33N 37°58' E 023°37'0 0.0
2016-Feb-04 03:33N 37°58' E 023°37'0 0.0
2016-Feb-04 02:33N 37°58' E 023°37'0 0.0
2016-Feb-04 01:33N 37°58' E 023°37'0 0.0
2016-Feb-04 00:33N 37°58' E 023°37'0 0.0
2016-Feb-03 23:33N 37°58' E 023°37'0 0.0
2016-Feb-03 22:32N 37°58' E 023°37'0 0.0
2016-Feb-03 21:33N 37°58' E 023°37'0 0.0
2016-Feb-03 20:11N 37°58' E 023°37'0 0.0
2016-Feb-03 19:34N 37°58' E 023°37'0 0.0
2016-Feb-03 18:33N 37°58' E 023°37'0 0.0
2016-Feb-03 17:33N 37°58' E 023°37'0 0.0
2016-Feb-03 16:31N 37°58' E 023°37'0 0.0
2016-Feb-03 15:34N 37°58' E 023°37'0 0.0
2016-Feb-03 14:34N 37°58' E 023°37'0 0.0
2016-Feb-03 13:33N 37°58' E 023°37'0 0.0
2016-Feb-03 12:32N 37°58' E 023°37'1 1.4
2016-Feb-03 11:34N 37°56' E 023°38'1 0.6
2016-Feb-03 10:34N 37°57' E 023°38'0 0.0
2016-Feb-03 09:33N 37°57' E 023°38'0 0.0
2016-Feb-03 08:33N 37°57' E 023°38'2 1.7
2016-Feb-03 07:33N 37°57' E 023°36'6 6.0
2016-Feb-03 06:34N 38°02' E 023°31'0 0.0
2016-Feb-03 05:33N 38°02' E 023°32'0 0.0
2016-Feb-03 04:33N 38°01' E 023°32'3 2.5
2016-Feb-03 03:34N 38°01' E 023°35'0 0.0
2016-Feb-03 02:33N 38°01' E 023°35'0 0.0
2016-Feb-03 01:34N 38°01' E 023°35'0 0.0
2016-Feb-03 00:34N 38°01' E 023°35'0 0.0
2016-Feb-02 23:33N 38°01' E 023°35'0 0.0
2016-Feb-02 22:34N 38°01' E 023°35'0 0.0
2016-Feb-02 21:34N 38°01' E 023°35'0 0.0
2016-Feb-02 20:34N 38°01' E 023°35'1 0.9
2016-Feb-02 19:33N 38°02' E 023°36'0 0.0
2016-Feb-02 18:33N 38°02' E 023°36'0 0.0
2016-Feb-02 17:33N 38°02' E 023°36'0 0.0
2016-Feb-02 16:34N 38°02' E 023°36'1 0.8
2016-Feb-02 15:33N 38°02' E 023°35'0 0.0
2016-Feb-02 14:33N 38°02' E 023°35'0 0.0
2016-Feb-02 13:34N 38°02' E 023°35'0 0.0
2016-Feb-02 12:34N 38°02' E 023°35'0 0.0
2016-Feb-02 11:34N 38°02' E 023°35'0 0.0
2016-Feb-02 10:33N 38°02' E 023°35'0 0.0
2016-Feb-02 09:32N 38°02' E 023°35'0 0.0
2016-Feb-02 08:33N 38°02' E 023°35'0 0.0
2016-Feb-02 07:33N 38°02' E 023°35'0 0.0
2016-Feb-02 06:32N 38°02' E 023°35'2 1.9
2016-Feb-02 05:33N 38°00' E 023°33'4 3.8
2016-Feb-02 04:33N 37°58' E 023°37'0 0.0
2016-Feb-02 03:33N 37°58' E 023°37'0 0.0
2016-Feb-02 02:33N 37°58' E 023°37'0 0.0
2016-Feb-02 01:34N 37°58' E 023°37'  
Track history (hours):
 
Tides and Currents Weather Stations Pressure Air Temp Water Temp Dewpoint Dewpoint Depression Visibility Wind Speed Wind Dir Waves Ship Positions

Mandoudi

Last reported at 2016-Feb-12 00:33 UTC. Time now 2016-Feb-12 01:22 UTC.
Position N 38°02' E 023°31'.

Length 60 m; draft 4.6 m.

Type: Ship (hazmat cat A). MMSI: 237470200.

Date/timePositionNaut miles runAvg speedWind from/ knotsBaromVisibWave heightAir tempDewpointWater temp
2016-Feb-12 00:33N 38°02' E 023°31'0 0.0
2016-Feb-11 23:33N 38°02' E 023°31'0 0.0
2016-Feb-11 22:34N 38°02' E 023°31'0 0.0
2016-Feb-11 21:34N 38°02' E 023°31'0 0.2
2016-Feb-11 20:34N 38°02' E 023°31'0 0.5
2016-Feb-11 19:33N 38°02' E 023°31'0 0.0
2016-Feb-11 18:33N 38°02' E 023°31'0 0.0
2016-Feb-11 17:33N 38°02' E 023°31'0 0.0
2016-Feb-11 16:26N 38°02' E 023°31'0 0.1
2016-Feb-11 15:33N 38°02' E 023°31'5 5.2
2016-Feb-11 14:33N 37°57' E 023°34'4 3.6
2016-Feb-11 13:33N 37°57' E 023°38'0 0.0
2016-Feb-11 12:34N 37°57' E 023°38'0 0.0
2016-Feb-11 11:33N 37°57' E 023°38'0 0.0
2016-Feb-11 10:34N 37°57' E 023°38'1 0.8
2016-Feb-11 09:33N 37°56' E 023°37'1 1.3
2016-Feb-11 08:34N 37°58' E 023°37'0 0.0
2016-Feb-11 07:33N 37°58' E 023°37'0 0.0
2016-Feb-11 06:33N 37°58' E 023°37'0 0.0
2016-Feb-11 05:33N 37°58' E 023°37'4 3.8
2016-Feb-11 04:33N 37°60' E 023°33'2 2.0
2016-Feb-11 03:33N 38°02' E 023°31'0 0.0
2016-Feb-11 02:33N 38°02' E 023°31'0 0.0
2016-Feb-11 01:33N 38°02' E 023°31'0 0.0
2016-Feb-11 00:33N 38°02' E 023°31'0 0.1
2016-Feb-10 23:33N 38°02' E 023°31'0 0.0
2016-Feb-10 22:33N 38°02' E 023°31'0 0.0
2016-Feb-10 21:33N 38°02' E 023°31'0 0.0
2016-Feb-10 20:33N 38°02' E 023°31'1 0.8
2016-Feb-10 19:33N 38°02' E 023°31'0 0.0
2016-Feb-10 18:34N 38°02' E 023°31'0 0.0
2016-Feb-10 17:34N 38°02' E 023°31'0 0.0
2016-Feb-10 16:33N 38°02' E 023°31'0 0.0
2016-Feb-10 15:33N 38°02' E 023°31'5 5.5
2016-Feb-10 14:34N 37°57' E 023°34'2 2.2
2016-Feb-10 13:33N 37°58' E 023°37'3 2.6
2016-Feb-10 12:34N 37°55' E 023°38'9 8.9
2016-Feb-10 11:33N 37°48' E 023°44'19 4.3
2016-Feb-10 07:15N 37°55' E 024°05'6 8.9
2016-Feb-10 06:32N 38°01' E 024°06'23 7.8
2016-Feb-10 03:32N 38°21' E 023°49'  
2016-Feb-07 14:32N 38°21' E 023°47'23 7.0
2016-Feb-07 11:18N 38°04' E 024°06'7 8.0
2016-Feb-07 10:24N 37°57' E 024°05'20 4.2
2016-Feb-07 05:34N 37°48' E 023°42'8 8.0
2016-Feb-07 04:33N 37°55' E 023°37'3 2.8
2016-Feb-07 03:34N 37°58' E 023°37'0 0.0
2016-Feb-07 02:33N 37°58' E 023°37'0 0.0
2016-Feb-07 01:34N 37°58' E 023°37'0 0.0
2016-Feb-07 00:34N 37°58' E 023°37'0 0.0
2016-Feb-06 23:33N 37°58' E 023°37'0 0.0
2016-Feb-06 22:34N 37°58' E 023°37'0 0.0
2016-Feb-06 21:34N 37°58' E 023°37'0 0.0
2016-Feb-06 20:34N 37°58' E 023°37'0 0.0
2016-Feb-06 19:33N 37°58' E 023°37'0 0.0
2016-Feb-06 18:33N 37°58' E 023°37'0 0.0
2016-Feb-06 17:33N 37°58' E 023°37'0 0.0
2016-Feb-06 16:33N 37°58' E 023°37'0 0.0
2016-Feb-06 15:34N 37°58' E 023°37'0 0.0
2016-Feb-06 14:34N 37°58' E 023°37'0 0.0
2016-Feb-06 13:34N 37°58' E 023°37'0 0.0
2016-Feb-06 12:33N 37°58' E 023°37'0 0.0
2016-Feb-06 11:34N 37°58' E 023°37'0 0.0
2016-Feb-06 10:33N 37°58' E 023°37'0 0.0
2016-Feb-06 09:34N 37°58' E 023°37'0 0.0
2016-Feb-06 08:33N 37°58' E 023°37'0 0.0
2016-Feb-06 07:33N 37°58' E 023°37'0 0.0
2016-Feb-06 06:33N 37°58' E 023°37'0 0.0
2016-Feb-06 05:33N 37°58' E 023°37'0 0.0
2016-Feb-06 04:34N 37°58' E 023°37'0 0.0
2016-Feb-06 03:33N 37°58' E 023°37'0 0.0
2016-Feb-06 02:33N 37°58' E 023°37'0 0.0
2016-Feb-06 01:34N 37°58' E 023°37'0 0.0
2016-Feb-06 00:34N 37°58' E 023°37'0 0.0
2016-Feb-05 23:34N 37°58' E 023°37'0 0.0
2016-Feb-05 22:33N 37°58' E 023°37'0 0.0
2016-Feb-05 21:33N 37°58' E 023°37'0 0.0
2016-Feb-05 20:33N 37°58' E 023°37'0 0.0
2016-Feb-05 19:33N 37°58' E 023°37'0 0.0
2016-Feb-05 18:33N 37°58' E 023°37'2 2.2
2016-Feb-05 17:34N 37°57' E 023°34'6 5.5
2016-Feb-05 16:34N 38°02' E 023°31'0 0.0
2016-Feb-05 15:33N 38°02' E 023°31'0 0.0
2016-Feb-05 14:34N 38°02' E 023°31'0 0.0
2016-Feb-05 13:33N 38°02' E 023°31'0 0.0
2016-Feb-05 12:33N 38°02' E 023°31'0 0.0
2016-Feb-05 11:33N 38°02' E 023°31'0 0.0
2016-Feb-05 10:34N 38°02' E 023°31'0 0.0
2016-Feb-05 09:34N 38°02' E 023°31'1 0.8
2016-Feb-05 08:34N 38°02' E 023°32'0 0.4
2016-Feb-05 07:33N 38°01' E 023°32'0 0.0
2016-Feb-05 06:33N 38°01' E 023°32'4 3.8
2016-Feb-05 05:33N 37°58' E 023°33'3 3.0
2016-Feb-05 04:34N 37°58' E 023°37'0 0.0
2016-Feb-05 03:33N 37°58' E 023°37'0 0.0
2016-Feb-05 02:33N 37°58' E 023°37'0 0.0
2016-Feb-05 01:34N 37°58' E 023°37'0 0.0
2016-Feb-05 00:33N 37°58' E 023°37'0 0.0
2016-Feb-04 23:33N 37°58' E 023°37'0 0.0
2016-Feb-04 22:34N 37°58' E 023°37'0 0.0
2016-Feb-04 21:33N 37°58' E 023°37'0 0.0
2016-Feb-04 20:33N 37°58' E 023°37'0 0.0
2016-Feb-04 19:33N 37°58' E 023°37'0 0.0
2016-Feb-04 18:34N 37°58' E 023°37'0 0.0
2016-Feb-04 17:32N 37°58' E 023°37'0 0.0
2016-Feb-04 16:33N 37°58' E 023°37'0 0.0
2016-Feb-04 15:33N 37°58' E 023°37'0 0.0
2016-Feb-04 14:34N 37°58' E 023°37'0 0.0
2016-Feb-04 13:34N 37°58' E 023°37'1 1.4
2016-Feb-04 12:34N 37°57' E 023°38'0 0.1
2016-Feb-04 11:34N 37°57' E 023°38'0 0.0
2016-Feb-04 10:33N 37°57' E 023°38'0 0.1
2016-Feb-04 09:33N 37°57' E 023°38'1 1.5
2016-Feb-04 08:33N 37°58' E 023°37'0 0.0
2016-Feb-04 07:33N 37°58' E 023°37'0 0.0
2016-Feb-04 06:33N 37°58' E 023°37'0 0.0
2016-Feb-04 05:33N 37°58' E 023°37'0 0.0
2016-Feb-04 04:33N 37°58' E 023°37'0 0.0
2016-Feb-04 03:33N 37°58' E 023°37'0 0.0
2016-Feb-04 02:33N 37°58' E 023°37'0 0.0
2016-Feb-04 01:33N 37°58' E 023°37'0 0.0
2016-Feb-04 00:33N 37°58' E 023°37'0 0.0
2016-Feb-03 23:33N 37°58' E 023°37'0 0.0
2016-Feb-03 22:32N 37°58' E 023°37'0 0.0
2016-Feb-03 21:33N 37°58' E 023°37'0 0.0
2016-Feb-03 20:11N 37°58' E 023°37'0 0.0
2016-Feb-03 19:34N 37°58' E 023°37'0 0.0
2016-Feb-03 18:33N 37°58' E 023°37'0 0.0
2016-Feb-03 17:33N 37°58' E 023°37'0 0.0
2016-Feb-03 16:31N 37°58' E 023°37'0 0.0
2016-Feb-03 15:34N 37°58' E 023°37'0 0.0
2016-Feb-03 14:34N 37°58' E 023°37'0 0.0
2016-Feb-03 13:33N 37°58' E 023°37'0 0.0
2016-Feb-03 12:32N 37°58' E 023°37'1 1.4
2016-Feb-03 11:34N 37°56' E 023°38'1 0.6
2016-Feb-03 10:34N 37°57' E 023°38'0 0.0
2016-Feb-03 09:33N 37°57' E 023°38'0 0.0
2016-Feb-03 08:33N 37°57' E 023°38'2 1.7
2016-Feb-03 07:33N 37°57' E 023°36'6 6.0
2016-Feb-03 06:34N 38°02' E 023°31'0 0.0
2016-Feb-03 05:33N 38°02' E 023°32'0 0.0
2016-Feb-03 04:33N 38°01' E 023°32'3 2.5
2016-Feb-03 03:34N 38°01' E 023°35'0 0.0
2016-Feb-03 02:33N 38°01' E 023°35'0 0.0
2016-Feb-03 01:34N 38°01' E 023°35'0 0.0
2016-Feb-03 00:34N 38°01' E 023°35'0 0.0
2016-Feb-02 23:33N 38°01' E 023°35'0 0.0
2016-Feb-02 22:34N 38°01' E 023°35'0 0.0
2016-Feb-02 21:34N 38°01' E 023°35'0 0.0
2016-Feb-02 20:34N 38°01' E 023°35'1 0.9
2016-Feb-02 19:33N 38°02' E 023°36'0 0.0
2016-Feb-02 18:33N 38°02' E 023°36'0 0.0
2016-Feb-02 17:33N 38°02' E 023°36'0 0.0
2016-Feb-02 16:34N 38°02' E 023°36'1 0.8
2016-Feb-02 15:33N 38°02' E 023°35'0 0.0
2016-Feb-02 14:33N 38°02' E 023°35'0 0.0
2016-Feb-02 13:34N 38°02' E 023°35'0 0.0
2016-Feb-02 12:34N 38°02' E 023°35'0 0.0
2016-Feb-02 11:34N 38°02' E 023°35'0 0.0
2016-Feb-02 10:33N 38°02' E 023°35'0 0.0
2016-Feb-02 09:32N 38°02' E 023°35'0 0.0
2016-Feb-02 08:33N 38°02' E 023°35'0 0.0
2016-Feb-02 07:33N 38°02' E 023°35'0 0.0
2016-Feb-02 06:32N 38°02' E 023°35'2 1.9
2016-Feb-02 05:33N 38°00' E 023°33'4 3.8
2016-Feb-02 04:33N 37°58' E 023°37'0 0.0
2016-Feb-02 03:33N 37°58' E 023°37'0 0.0
2016-Feb-02 02:33N 37°58' E 023°37'0 0.0
2016-Feb-02 01:34N 37°58' E 023°37'  

Dump ship's entire track history